Current Weather

Pemba

Pemba, Mozambique (FQPB)

Report from: Sunday, November 27, 2022 11:00 AM CAT
Current time: Sunday, November 27, 2022 11:32 AM CAT

Nearby weather
Weather history
Weather forecast

Temperature30.0°C (86.0°F)
Heat index33.4°C (92.1°F)
Dew point22.0°C (71.6°F)
Winds 13 kts (6.7 m/s, 15 mph) Vrb
Winds variableWinds variable from North-Northeast (30°) to East (90°)
Visibility6.2 mi. (10 km)
Clouds Few clouds 2,000 ft. (610 m)
Altimeter29.88 in.Hg (1012 mB)
Relative humidity62 %
Density altitude2,117 ft. (645 m)
Flight conditions Visual Meteorological Conditions
Raw dataFQPB 270900Z 06013KT 030V090 9999 FEW020 30/22 Q1012
An error has occurred. This application may no longer respond until reloaded. Reload 🗙